Terminal Aerodrome Forecast
Issued by NWS

Home | Current Version | Previous Version | Text Only | Print | Product List | Glossary On
Versions: 1 2 3 4 5 6 7 8 9 10 11 12 13 14 15 16 17 18 19 20 21 22
000
FTUS42 KMHX 300546
TAFPGV
TAF
KPGV 300546Z 3006/3106 VRB04KT P6SM VCSH SCT015 OVC050
     FM300900 VRB03KT P6SM VCSH BKN008 OVC015
     FM301200 00000KT 3SM SHRA OVC008
      TEMPO 3012/3015 2SM +SHRA
     FM301600 VRB03KT P6SM VCSH OVC025
     FM302000 09005KT P6SM VCSH OVC040
      AMD LTD TO CLD VIS AND WIND=

USA.gov is the U.S. government's official web portal to all federal, state and local government web resources and services.